sensor_id;sensor_type;location;lat;lon;timestamp;pressure;altitude;pressure_sealevel;temperature;humidity
64189;BME280;50493;50.970;10.082;2023-03-14T00:01:33;97098.84;;;10.16;61.58
64189;BME280;50493;50.970;10.082;2023-03-14T00:03:58;97110.00;;;10.18;61.53
64189;BME280;50493;50.970;10.082;2023-03-14T00:06:25;97131.00;;;10.16;62.15
64189;BME280;50493;50.970;10.082;2023-03-14T00:08:50;97132.19;;;10.10;62.22
64189;BME280;50493;50.970;10.082;2023-03-14T00:11:19;97144.63;;;10.05;62.88
64189;BME280;50493;50.970;10.082;2023-03-14T00:13:46;97156.59;;;10.09;63.12
64189;BME280;50493;50.970;10.082;2023-03-14T00:16:12;97164.28;;;9.96;64.55
64189;BME280;50493;50.970;10.082;2023-03-14T00:18:38;97160.63;;;9.67;63.72
64189;BME280;50493;50.970;10.082;2023-03-14T00:21:06;97185.72;;;9.70;63.28
64189;BME280;50493;50.970;10.082;2023-03-14T00:23:33;97185.66;;;9.54;64.11
64189;BME280;50493;50.970;10.082;2023-03-14T00:25:59;97195.28;;;9.53;65.08
64189;BME280;50493;50.970;10.082;2023-03-14T00:28:26;97219.13;;;9.79;62.87
64189;BME280;50493;50.970;10.082;2023-03-14T00:30:52;97229.06;;;9.72;63.75
64189;BME280;50493;50.970;10.082;2023-03-14T00:33:17;97233.00;;;9.79;63.11
64189;BME280;50493;50.970;10.082;2023-03-14T00:35:42;97239.00;;;9.48;64.36
64189;BME280;50493;50.970;10.082;2023-03-14T00:38:08;97254.91;;;9.26;65.13
64189;BME280;50493;50.970;10.082;2023-03-14T00:40:33;97246.22;;;9.43;64.96
64189;BME280;50493;50.970;10.082;2023-03-14T00:42:58;97246.44;;;9.56;63.20
64189;BME280;50493;50.970;10.082;2023-03-14T00:45:25;97239.19;;;9.94;66.32
64189;BME280;50493;50.970;10.082;2023-03-14T00:47:50;97235.75;;;9.94;62.70
64189;BME280;50493;50.970;10.082;2023-03-14T00:50:16;97237.84;;;10.35;61.64
64189;BME280;50493;50.970;10.082;2023-03-14T00:52:41;97230.88;;;10.52;60.78
64189;BME280;50493;50.970;10.082;2023-03-14T00:55:07;97214.38;;;10.67;61.39
64189;BME280;50493;50.970;10.082;2023-03-14T00:57:32;97214.06;;;10.41;63.46
64189;BME280;50493;50.970;10.082;2023-03-14T00:59:58;97209.56;;;10.59;60.36
64189;BME280;50493;50.970;10.082;2023-03-14T01:02:25;97205.25;;;10.58;59.82
64189;BME280;50493;50.970;10.082;2023-03-14T01:04:50;97200.38;;;10.68;59.47
64189;BME280;50493;50.970;10.082;2023-03-14T01:07:15;97200.09;;;10.42;61.97
64189;BME280;50493;50.970;10.082;2023-03-14T01:09:41;97193.66;;;10.48;59.84
64189;BME280;50493;50.970;10.082;2023-03-14T01:12:06;97203.25;;;10.16;60.53
64189;BME280;50493;50.970;10.082;2023-03-14T01:14:31;97183.88;;;10.52;60.19
64189;BME280;50493;50.970;10.082;2023-03-14T01:16:57;97175.03;;;10.06;60.53
64189;BME280;50493;50.970;10.082;2023-03-14T01:19:27;97172.09;;;9.80;61.51
64189;BME280;50493;50.970;10.082;2023-03-14T01:21:53;97163.16;;;9.85;65.90
64189;BME280;50493;50.970;10.082;2023-03-14T01:24:18;97169.88;;;9.73;62.45
64189;BME280;50493;50.970;10.082;2023-03-14T01:26:44;97157.28;;;9.65;63.47
64189;BME280;50493;50.970;10.082;2023-03-14T01:29:09;97160.97;;;9.77;62.50
64189;BME280;50493;50.970;10.082;2023-03-14T01:31:35;97159.78;;;10.14;61.40
64189;BME280;50493;50.970;10.082;2023-03-14T01:34:00;97153.69;;;10.30;61.24
64189;BME280;50493;50.970;10.082;2023-03-14T01:36:27;97160.81;;;9.96;64.25
64189;BME280;50493;50.970;10.082;2023-03-14T01:38:52;97144.75;;;10.36;60.87
64189;BME280;50493;50.970;10.082;2023-03-14T01:41:19;97134.53;;;10.15;61.41
64189;BME280;50493;50.970;10.082;2023-03-14T01:43:45;97147.16;;;10.23;61.57
64189;BME280;50493;50.970;10.082;2023-03-14T01:46:24;97139.13;;;10.58;61.95
64189;BME280;50493;50.970;10.082;2023-03-14T01:48:57;97127.44;;;10.49;60.02
64189;BME280;50493;50.970;10.082;2023-03-14T01:51:29;97126.09;;;10.26;63.66
64189;BME280;50493;50.970;10.082;2023-03-14T01:54:04;97122.66;;;10.41;61.27
64189;BME280;50493;50.970;10.082;2023-03-14T01:56:30;97117.69;;;10.21;61.05
64189;BME280;50493;50.970;10.082;2023-03-14T01:58:55;97117.31;;;10.27;61.55
64189;BME280;50493;50.970;10.082;2023-03-14T02:01:24;97110.97;;;10.01;62.35
64189;BME280;50493;50.970;10.082;2023-03-14T02:03:52;97116.28;;;9.99;61.68
64189;BME280;50493;50.970;10.082;2023-03-14T02:06:23;97091.34;;;10.09;63.13
64189;BME280;50493;50.970;10.082;2023-03-14T02:08:51;97079.56;;;9.86;62.59
64189;BME280;50493;50.970;10.082;2023-03-14T02:11:17;97072.94;;;9.80;63.70
64189;BME280;50493;50.970;10.082;2023-03-14T02:13:44;97080.53;;;9.69;63.69
64189;BME280;50493;50.970;10.082;2023-03-14T02:16:09;97081.63;;;9.65;63.76
64189;BME280;50493;50.970;10.082;2023-03-14T02:18:35;97081.06;;;10.06;62.19
64189;BME280;50493;50.970;10.082;2023-03-14T02:21:06;97093.47;;;9.55;64.92
64189;BME280;50493;50.970;10.082;2023-03-14T02:23:41;97096.19;;;9.69;63.26
64189;BME280;50493;50.970;10.082;2023-03-14T02:26:12;97095.97;;;9.40;64.48
64189;BME280;50493;50.970;10.082;2023-03-14T02:28:41;97086.72;;;9.83;63.03
64189;BME280;50493;50.970;10.082;2023-03-14T02:31:08;97082.53;;;9.64;64.42
64189;BME280;50493;50.970;10.082;2023-03-14T02:33:35;97086.06;;;9.63;63.38
64189;BME280;50493;50.970;10.082;2023-03-14T02:36:03;97076.97;;;9.38;66.83
64189;BME280;50493;50.970;10.082;2023-03-14T02:38:34;97077.47;;;9.61;65.14
64189;BME280;50493;50.970;10.082;2023-03-14T02:41:02;97075.69;;;9.93;65.99
64189;BME280;50493;50.970;10.082;2023-03-14T02:43:28;97085.13;;;9.96;62.40
64189;BME280;50493;50.970;10.082;2023-03-14T02:45:55;97072.06;;;9.96;62.06
64189;BME280;50493;50.970;10.082;2023-03-14T02:48:24;97073.25;;;10.06;61.55
64189;BME280;50493;50.970;10.082;2023-03-14T02:50:52;97075.88;;;9.74;63.16
64189;BME280;50493;50.970;10.082;2023-03-14T02:53:20;97065.28;;;9.77;62.67
64189;BME280;50493;50.970;10.082;2023-03-14T02:55:47;97068.53;;;9.97;62.14
64189;BME280;50493;50.970;10.082;2023-03-14T02:58:13;97055.25;;;9.86;62.95
64189;BME280;50493;50.970;10.082;2023-03-14T03:00:38;97054.25;;;9.88;63.05
64189;BME280;50493;50.970;10.082;2023-03-14T03:03:05;97035.31;;;9.85;63.91
64189;BME280;50493;50.970;10.082;2023-03-14T03:05:33;97033.69;;;9.98;62.34
64189;BME280;50493;50.970;10.082;2023-03-14T03:07:58;97031.25;;;10.25;62.62
64189;BME280;50493;50.970;10.082;2023-03-14T03:10:24;97032.06;;;10.11;61.71
64189;BME280;50493;50.970;10.082;2023-03-14T03:12:49;97020.44;;;10.01;62.23
64189;BME280;50493;50.970;10.082;2023-03-14T03:15:15;97032.16;;;10.10;63.78
64189;BME280;50493;50.970;10.082;2023-03-14T03:17:40;97051.28;;;10.41;60.34
64189;BME280;50493;50.970;10.082;2023-03-14T03:20:08;97023.31;;;10.27;61.03
64189;BME280;50493;50.970;10.082;2023-03-14T03:22:34;97021.16;;;9.89;64.79
64189;BME280;50493;50.970;10.082;2023-03-14T03:24:59;97018.72;;;9.86;63.05
64189;BME280;50493;50.970;10.082;2023-03-14T03:27:25;97013.13;;;10.08;61.50
64189;BME280;50493;50.970;10.082;2023-03-14T03:29:50;97026.25;;;10.37;60.91
64189;BME280;50493;50.970;10.082;2023-03-14T03:32:16;97029.25;;;10.14;61.03
64189;BME280;50493;50.970;10.082;2023-03-14T03:34:41;97030.78;;;10.19;62.11
64189;BME280;50493;50.970;10.082;2023-03-14T03:37:08;97026.78;;;9.97;64.82
64189;BME280;50493;50.970;10.082;2023-03-14T03:39:33;97014.72;;;10.10;61.33
64189;BME280;50493;50.970;10.082;2023-03-14T03:41:58;97030.28;;;10.12;61.58
64189;BME280;50493;50.970;10.082;2023-03-14T03:44:24;97016.59;;;10.23;60.27
64189;BME280;50493;50.970;10.082;2023-03-14T03:46:49;97025.47;;;9.90;61.72
64189;BME280;50493;50.970;10.082;2023-03-14T03:49:14;97029.22;;;10.00;60.66
64189;BME280;50493;50.970;10.082;2023-03-14T03:51:40;97027.63;;;10.58;58.50
64189;BME280;50493;50.970;10.082;2023-03-14T03:54:07;97020.53;;;10.30;59.28
64189;BME280;50493;50.970;10.082;2023-03-14T03:56:32;97027.34;;;10.32;63.30
64189;BME280;50493;50.970;10.082;2023-03-14T03:58:58;97026.06;;;10.56;58.94
64189;BME280;50493;50.970;10.082;2023-03-14T04:01:23;97027.34;;;10.32;59.92
64189;BME280;50493;50.970;10.082;2023-03-14T04:03:48;97024.25;;;9.95;62.18
64189;BME280;50493;50.970;10.082;2023-03-14T04:06:14;97017.31;;;9.64;63.19
64189;BME280;50493;50.970;10.082;2023-03-14T04:08:39;97008.72;;;9.62;63.72
64189;BME280;50493;50.970;10.082;2023-03-14T04:11:07;96994.47;;;9.84;64.48
64189;BME280;50493;50.970;10.082;2023-03-14T04:13:33;97012.69;;;9.37;64.83
64189;BME280;50493;50.970;10.082;2023-03-14T04:15:58;97016.06;;;9.39;64.68
64189;BME280;50493;50.970;10.082;2023-03-14T04:18:24;97011.69;;;9.56;64.21
64189;BME280;50493;50.970;10.082;2023-03-14T04:20:52;97016.59;;;9.30;65.15
64189;BME280;50493;50.970;10.082;2023-03-14T04:23:18;97023.09;;;9.05;67.41
64189;BME280;50493;50.970;10.082;2023-03-14T04:25:43;97008.97;;;9.09;67.81
64189;BME280;50493;50.970;10.082;2023-03-14T04:28:10;97016.34;;;9.01;68.56
64189;BME280;50493;50.970;10.082;2023-03-14T04:30:35;97004.63;;;9.26;67.12
64189;BME280;50493;50.970;10.082;2023-03-14T04:33:01;96989.84;;;8.93;68.05
64189;BME280;50493;50.970;10.082;2023-03-14T04:35:26;96994.34;;;9.23;66.47
64189;BME280;50493;50.970;10.082;2023-03-14T04:37:51;97003.03;;;8.90;68.67
64189;BME280;50493;50.970;10.082;2023-03-14T04:40:17;96997.13;;;9.04;67.82
64189;BME280;50493;50.970;10.082;2023-03-14T04:42:43;96998.75;;;9.38;65.79
64189;BME280;50493;50.970;10.082;2023-03-14T04:45:09;96993.84;;;9.64;64.73
64189;BME280;50493;50.970;10.082;2023-03-14T04:47:35;96995.69;;;9.46;66.08
64189;BME280;50493;50.970;10.082;2023-03-14T04:50:00;97002.28;;;9.53;67.34
64189;BME280;50493;50.970;10.082;2023-03-14T04:52:26;96989.81;;;9.58;65.17
64189;BME280;50493;50.970;10.082;2023-03-14T04:54:52;96992.84;;;9.19;65.93
64189;BME280;50493;50.970;10.082;2023-03-14T04:57:17;96987.28;;;9.57;65.19
64189;BME280;50493;50.970;10.082;2023-03-14T04:59:43;96982.75;;;9.44;64.56
64189;BME280;50493;50.970;10.082;2023-03-14T05:02:09;96982.94;;;9.41;63.13
64189;BME280;50493;50.970;10.082;2023-03-14T05:04:35;96987.09;;;8.96;68.99
64189;BME280;50493;50.970;10.082;2023-03-14T05:07:00;96996.13;;;8.89;64.51
64189;BME280;50493;50.970;10.082;2023-03-14T05:09:26;96987.31;;;9.25;63.58
64189;BME280;50493;50.970;10.082;2023-03-14T05:11:51;96985.44;;;8.95;64.02
64189;BME280;50493;50.970;10.082;2023-03-14T05:14:17;96987.22;;;9.26;62.99
64189;BME280;50493;50.970;10.082;2023-03-14T05:16:42;96989.31;;;9.04;63.85
64189;BME280;50493;50.970;10.082;2023-03-14T05:19:09;96996.81;;;9.10;64.68
64189;BME280;50493;50.970;10.082;2023-03-14T05:21:35;96998.13;;;9.01;63.55
64189;BME280;50493;50.970;10.082;2023-03-14T05:24:00;96994.84;;;9.13;62.82
64189;BME280;50493;50.970;10.082;2023-03-14T05:26:25;97008.72;;;8.80;64.44
64189;BME280;50493;50.970;10.082;2023-03-14T05:28:51;96994.00;;;8.97;64.08
64189;BME280;50493;50.970;10.082;2023-03-14T05:31:16;96992.19;;;9.15;63.88
64189;BME280;50493;50.970;10.082;2023-03-14T05:33:41;96994.72;;;9.17;65.05
64189;BME280;50493;50.970;10.082;2023-03-14T05:36:08;96985.13;;;9.33;62.43
64189;BME280;50493;50.970;10.082;2023-03-14T05:38:34;96989.47;;;9.49;61.67
64189;BME280;50493;50.970;10.082;2023-03-14T05:40:59;96987.81;;;9.32;65.92
64189;BME280;50493;50.970;10.082;2023-03-14T05:43:24;96982.25;;;9.38;62.51
64189;BME280;50493;50.970;10.082;2023-03-14T05:45:50;96995.94;;;9.09;62.69
64189;BME280;50493;50.970;10.082;2023-03-14T05:48:15;96990.31;;;9.17;62.88
64189;BME280;50493;50.970;10.082;2023-03-14T05:50:42;96993.84;;;9.32;62.47
64189;BME280;50493;50.970;10.082;2023-03-14T05:53:08;96999.91;;;9.49;62.03
64189;BME280;50493;50.970;10.082;2023-03-14T05:55:34;97005.44;;;9.10;63.28
64189;BME280;50493;50.970;10.082;2023-03-14T05:57:59;97000.59;;;9.04;63.56
64189;BME280;50493;50.970;10.082;2023-03-14T06:00:24;97001.66;;;9.00;63.08
64189;BME280;50493;50.970;10.082;2023-03-14T06:02:50;96994.22;;;9.26;62.35
64189;BME280;50493;50.970;10.082;2023-03-14T06:05:15;96993.28;;;8.77;65.92
64189;BME280;50493;50.970;10.082;2023-03-14T06:07:41;96994.13;;;8.94;64.86
64189;BME280;50493;50.970;10.082;2023-03-14T06:10:08;96984.84;;;9.38;65.20
64189;BME280;50493;50.970;10.082;2023-03-14T06:12:34;96979.06;;;9.01;64.19
64189;BME280;50493;50.970;10.082;2023-03-14T06:14:59;96970.56;;;9.29;65.18
64189;BME280;50493;50.970;10.082;2023-03-14T06:17:25;96962.75;;;9.29;63.65
64189;BME280;50493;50.970;10.082;2023-03-14T06:19:50;96955.75;;;9.61;61.66
64189;BME280;50493;50.970;10.082;2023-03-14T06:22:15;96954.00;;;9.30;63.29
64189;BME280;50493;50.970;10.082;2023-03-14T06:24:41;96952.81;;;9.52;62.33
64189;BME280;50493;50.970;10.082;2023-03-14T06:27:08;96948.72;;;9.78;61.42
64189;BME280;50493;50.970;10.082;2023-03-14T06:29:33;96947.59;;;9.82;61.76
64189;BME280;50493;50.970;10.082;2023-03-14T06:31:58;96942.69;;;9.61;62.35
64189;BME280;50493;50.970;10.082;2023-03-14T06:34:24;96961.25;;;9.25;66.93
64189;BME280;50493;50.970;10.082;2023-03-14T06:36:49;96953.31;;;9.10;68.95
64189;BME280;50493;50.970;10.082;2023-03-14T06:39:14;96953.28;;;8.78;69.47
64189;BME280;50493;50.970;10.082;2023-03-14T06:41:40;96945.59;;;9.09;66.87
64189;BME280;50493;50.970;10.082;2023-03-14T06:44:06;96947.44;;;9.07;66.60
64189;BME280;50493;50.970;10.082;2023-03-14T06:46:32;96951.81;;;9.06;68.09
64189;BME280;50493;50.970;10.082;2023-03-14T06:48:57;96950.13;;;9.05;66.18
64189;BME280;50493;50.970;10.082;2023-03-14T06:51:22;96954.00;;;8.98;67.74
64189;BME280;50493;50.970;10.082;2023-03-14T06:53:48;96955.69;;;8.99;65.05
64189;BME280;50493;50.970;10.082;2023-03-14T06:56:13;96947.94;;;9.13;64.88
64189;BME280;50493;50.970;10.082;2023-03-14T06:58:38;96943.59;;;9.30;64.23
64189;BME280;50493;50.970;10.082;2023-03-14T07:01:10;96942.53;;;8.85;65.75
64189;BME280;50493;50.970;10.082;2023-03-14T07:03:42;96950.63;;;9.28;67.05
64189;BME280;50493;50.970;10.082;2023-03-14T07:06:07;96952.13;;;9.64;63.07
64189;BME280;50493;50.970;10.082;2023-03-14T07:08:32;96956.03;;;9.41;63.47
64189;BME280;50493;50.970;10.082;2023-03-14T07:10:58;96953.84;;;9.33;63.16
64189;BME280;50493;50.970;10.082;2023-03-14T07:13:23;96955.03;;;9.27;62.96
64189;BME280;50493;50.970;10.082;2023-03-14T07:15:48;96954.59;;;9.03;67.90
64189;BME280;50493;50.970;10.082;2023-03-14T07:18:15;96945.59;;;9.25;65.36
64189;BME280;50493;50.970;10.082;2023-03-14T07:20:40;96945.41;;;8.96;64.37
64189;BME280;50493;50.970;10.082;2023-03-14T07:23:05;96948.56;;;8.69;69.98
64189;BME280;50493;50.970;10.082;2023-03-14T07:25:31;96952.00;;;8.70;64.96
64189;BME280;50493;50.970;10.082;2023-03-14T07:27:56;96945.00;;;9.20;64.46
64189;BME280;50493;50.970;10.082;2023-03-14T07:30:22;96947.72;;;8.85;63.91
64189;BME280;50493;50.970;10.082;2023-03-14T07:32:47;96950.94;;;8.90;64.53
64189;BME280;50493;50.970;10.082;2023-03-14T07:35:14;96936.81;;;8.94;63.68
64189;BME280;50493;50.970;10.082;2023-03-14T07:37:39;96930.66;;;8.79;64.86
64189;BME280;50493;50.970;10.082;2023-03-14T07:40:06;96927.44;;;9.23;64.19
64189;BME280;50493;50.970;10.082;2023-03-14T07:42:32;96925.75;;;9.38;62.53
64189;BME280;50493;50.970;10.082;2023-03-14T07:44:57;96925.97;;;9.34;62.88
64189;BME280;50493;50.970;10.082;2023-03-14T07:47:22;96925.44;;;9.12;66.97
64189;BME280;50493;50.970;10.082;2023-03-14T07:49:48;96909.78;;;9.12;63.32
64189;BME280;50493;50.970;10.082;2023-03-14T07:52:14;96912.00;;;9.51;63.80
64189;BME280;50493;50.970;10.082;2023-03-14T07:54:40;96912.13;;;9.33;62.19
64189;BME280;50493;50.970;10.082;2023-03-14T07:57:05;96912.41;;;9.59;62.67
64189;BME280;50493;50.970;10.082;2023-03-14T07:59:30;96908.69;;;9.63;61.31
64189;BME280;50493;50.970;10.082;2023-03-14T08:01:56;96908.53;;;9.50;61.79
64189;BME280;50493;50.970;10.082;2023-03-14T08:04:21;96900.78;;;10.09;59.61
64189;BME280;50493;50.970;10.082;2023-03-14T08:06:46;96889.72;;;10.35;59.72
64189;BME280;50493;50.970;10.082;2023-03-14T08:09:13;96891.28;;;10.08;60.56
64189;BME280;50493;50.970;10.082;2023-03-14T08:11:39;96893.31;;;10.18;60.20
64189;BME280;50493;50.970;10.082;2023-03-14T08:14:04;96892.25;;;10.36;59.62
64189;BME280;50493;50.970;10.082;2023-03-14T08:16:29;96890.81;;;10.16;62.07
64189;BME280;50493;50.970;10.082;2023-03-14T08:18:55;96865.50;;;9.88;59.17
64189;BME280;50493;50.970;10.082;2023-03-14T08:21:21;96888.53;;;9.51;63.32
64189;BME280;50493;50.970;10.082;2023-03-14T08:23:46;96884.81;;;9.55;60.96
64189;BME280;50493;50.970;10.082;2023-03-14T08:26:13;96896.09;;;9.86;60.81
64189;BME280;50493;50.970;10.082;2023-03-14T08:28:38;96903.81;;;9.57;61.00
64189;BME280;50493;50.970;10.082;2023-03-14T08:31:04;96905.59;;;9.87;63.97
64189;BME280;50493;50.970;10.082;2023-03-14T08:33:29;96907.63;;;9.82;61.68
64189;BME280;50493;50.970;10.082;2023-03-14T08:35:56;96919.25;;;10.06;60.06
64189;BME280;50493;50.970;10.082;2023-03-14T08:38:22;96921.25;;;9.87;64.91
64189;BME280;50493;50.970;10.082;2023-03-14T08:40:48;96913.19;;;9.75;64.92
64189;BME280;50493;50.970;10.082;2023-03-14T08:43:16;96915.31;;;9.38;63.42
64189;BME280;50493;50.970;10.082;2023-03-14T08:45:41;96930.47;;;9.32;65.70
64189;BME280;50493;50.970;10.082;2023-03-14T08:48:07;96930.97;;;9.38;63.41
64189;BME280;50493;50.970;10.082;2023-03-14T08:50:32;96939.38;;;9.74;63.61
64189;BME280;50493;50.970;10.082;2023-03-14T08:52:58;96933.16;;;9.76;62.69
64189;BME280;50493;50.970;10.082;2023-03-14T08:55:25;96944.03;;;10.13;61.81
64189;BME280;50493;50.970;10.082;2023-03-14T08:57:52;96946.41;;;10.32;61.84
64189;BME280;50493;50.970;10.082;2023-03-14T09:00:20;96952.88;;;10.11;62.32
64189;BME280;50493;50.970;10.082;2023-03-14T09:02:45;96950.41;;;9.93;63.58
64189;BME280;50493;50.970;10.082;2023-03-14T09:05:11;96956.44;;;9.79;62.92
64189;BME280;50493;50.970;10.082;2023-03-14T09:07:38;96942.41;;;9.66;65.25
64189;BME280;50493;50.970;10.082;2023-03-14T09:10:04;96948.03;;;9.74;66.69
64189;BME280;50493;50.970;10.082;2023-03-14T09:12:29;96949.78;;;10.04;64.53
64189;BME280;50493;50.970;10.082;2023-03-14T09:14:55;96949.09;;;10.17;65.65
64189;BME280;50493;50.970;10.082;2023-03-14T09:17:22;96933.53;;;9.85;64.85
64189;BME280;50493;50.970;10.082;2023-03-14T09:19:47;96942.94;;;9.57;66.18
64189;BME280;50493;50.970;10.082;2023-03-14T09:22:13;96937.88;;;9.70;67.66
64189;BME280;50493;50.970;10.082;2023-03-14T09:24:39;96942.03;;;9.88;64.67
64189;BME280;50493;50.970;10.082;2023-03-14T09:27:05;96933.00;;;9.94;64.80
64189;BME280;50493;50.970;10.082;2023-03-14T09:29:30;96936.19;;;9.99;62.67
64189;BME280;50493;50.970;10.082;2023-03-14T09:31:57;96940.41;;;10.02;64.39
64189;BME280;50493;50.970;10.082;2023-03-14T09:34:24;96944.38;;;9.93;65.11
64189;BME280;50493;50.970;10.082;2023-03-14T09:36:50;96945.28;;;9.77;64.61
64189;BME280;50493;50.970;10.082;2023-03-14T09:39:15;96942.72;;;9.45;67.74
64189;BME280;50493;50.970;10.082;2023-03-14T09:41:43;96946.75;;;9.35;68.33
64189;BME280;50493;50.970;10.082;2023-03-14T09:44:13;96944.19;;;9.66;68.03
64189;BME280;50493;50.970;10.082;2023-03-14T09:46:41;96951.47;;;9.44;68.42
64189;BME280;50493;50.970;10.082;2023-03-14T09:49:11;96947.25;;;9.42;70.20
64189;BME280;50493;50.970;10.082;2023-03-14T09:51:39;96948.66;;;9.94;67.69
64189;BME280;50493;50.970;10.082;2023-03-14T09:54:14;96955.25;;;10.30;66.49
64189;BME280;50493;50.970;10.082;2023-03-14T09:56:43;96969.78;;;9.89;69.90
64189;BME280;50493;50.970;10.082;2023-03-14T09:59:11;96962.84;;;9.74;70.51
64189;BME280;50493;50.970;10.082;2023-03-14T10:01:38;96967.66;;;9.82;66.37
64189;BME280;50493;50.970;10.082;2023-03-14T10:04:09;96960.66;;;10.12;65.37
64189;BME280;50493;50.970;10.082;2023-03-14T10:06:35;96972.66;;;10.01;67.07
64189;BME280;50493;50.970;10.082;2023-03-14T10:09:02;96969.59;;;9.62;69.28
64189;BME280;50493;50.970;10.082;2023-03-14T10:11:27;96956.88;;;9.72;70.33
64189;BME280;50493;50.970;10.082;2023-03-14T10:14:04;96974.88;;;9.76;68.09
64189;BME280;50493;50.970;10.082;2023-03-14T10:16:30;96967.34;;;10.02;65.28
64189;BME280;50493;50.970;10.082;2023-03-14T10:19:01;96973.47;;;10.01;68.32
64189;BME280;50493;50.970;10.082;2023-03-14T10:21:29;96973.91;;;10.24;68.51
64189;BME280;50493;50.970;10.082;2023-03-14T10:24:08;96973.63;;;10.59;68.04
64189;BME280;50493;50.970;10.082;2023-03-14T10:26:34;96963.53;;;10.53;66.12
64189;BME280;50493;50.970;10.082;2023-03-14T10:29:02;96956.44;;;10.40;65.10
64189;BME280;50493;50.970;10.082;2023-03-14T10:31:46;96958.78;;;10.45;65.34
64189;BME280;50493;50.970;10.082;2023-03-14T10:34:16;96961.28;;;10.46;62.77
64189;BME280;50493;50.970;10.082;2023-03-14T10:36:42;96976.97;;;10.46;64.92
64189;BME280;50493;50.970;10.082;2023-03-14T10:39:24;96969.09;;;11.04;63.89
64189;BME280;50493;50.970;10.082;2023-03-14T10:41:53;96963.72;;;10.93;62.05
64189;BME280;50493;50.970;10.082;2023-03-14T10:44:21;96964.34;;;11.38;60.47
64189;BME280;50493;50.970;10.082;2023-03-14T10:46:55;96966.38;;;11.20;61.50
64189;BME280;50493;50.970;10.082;2023-03-14T10:49:27;96969.00;;;11.06;61.44
64189;BME280;50493;50.970;10.082;2023-03-14T10:51:53;96961.66;;;10.84;62.35
64189;BME280;50493;50.970;10.082;2023-03-14T10:54:21;96953.06;;;10.96;61.30
64189;BME280;50493;50.970;10.082;2023-03-14T10:56:56;96954.56;;;10.71;66.28
64189;BME280;50493;50.970;10.082;2023-03-14T10:59:22;96965.50;;;10.49;62.92
64189;BME280;50493;50.970;10.082;2023-03-14T11:01:51;96964.84;;;10.60;61.62
64189;BME280;50493;50.970;10.082;2023-03-14T11:04:37;96960.91;;;10.53;62.54
64189;BME280;50493;50.970;10.082;2023-03-14T11:07:10;96964.63;;;10.48;62.38
64189;BME280;50493;50.970;10.082;2023-03-14T11:09:43;96964.78;;;10.17;63.71
64189;BME280;50493;50.970;10.082;2023-03-14T11:12:25;96961.84;;;10.37;64.16
64189;BME280;50493;50.970;10.082;2023-03-14T11:14:56;96959.13;;;10.39;64.09
64189;BME280;50493;50.970;10.082;2023-03-14T11:17:28;96955.97;;;10.18;64.21
64189;BME280;50493;50.970;10.082;2023-03-14T11:20:22;96963.06;;;10.60;63.28
64189;BME280;50493;50.970;10.082;2023-03-14T11:22:58;96950.28;;;10.56;62.32
64189;BME280;50493;50.970;10.082;2023-03-14T11:25:31;96960.16;;;10.36;68.72
64189;BME280;50493;50.970;10.082;2023-03-14T11:28:08;96960.75;;;10.56;65.67
64189;BME280;50493;50.970;10.082;2023-03-14T11:30:39;96952.25;;;9.61;72.96
64189;BME280;50493;50.970;10.082;2023-03-14T11:33:13;96955.00;;;10.04;74.66
64189;BME280;50493;50.970;10.082;2023-03-14T11:35:45;96949.72;;;10.36;73.43
64189;BME280;50493;50.970;10.082;2023-03-14T11:38:18;96952.09;;;10.25;71.67
64189;BME280;50493;50.970;10.082;2023-03-14T11:40:48;96954.31;;;10.17;71.96
64189;BME280;50493;50.970;10.082;2023-03-14T11:43:17;96953.72;;;9.97;74.99
64189;BME280;50493;50.970;10.082;2023-03-14T11:45:47;96958.16;;;10.25;73.25
64189;BME280;50493;50.970;10.082;2023-03-14T11:48:19;96953.16;;;10.06;74.16
64189;BME280;50493;50.970;10.082;2023-03-14T11:50:49;96948.63;;;10.10;69.20
64189;BME280;50493;50.970;10.082;2023-03-14T11:53:19;96943.63;;;10.93;67.68
64189;BME280;50493;50.970;10.082;2023-03-14T11:55:47;96939.47;;;10.62;65.54
64189;BME280;50493;50.970;10.082;2023-03-14T11:58:19;96944.66;;;10.47;67.94
64189;BME280;50493;50.970;10.082;2023-03-14T12:00:47;96938.34;;;10.80;65.77
64189;BME280;50493;50.970;10.082;2023-03-14T12:03:19;96926.19;;;10.79;66.33
64189;BME280;50493;50.970;10.082;2023-03-14T12:05:58;96926.59;;;11.15;65.71
64189;BME280;50493;50.970;10.082;2023-03-14T12:08:47;96932.00;;;10.70;65.49
64189;BME280;50493;50.970;10.082;2023-03-14T12:11:30;96921.47;;;10.57;66.94
64189;BME280;50493;50.970;10.082;2023-03-14T12:13:57;96917.91;;;10.58;67.37
64189;BME280;50493;50.970;10.082;2023-03-14T12:16:34;96924.22;;;10.25;71.15
64189;BME280;50493;50.970;10.082;2023-03-14T12:19:29;96930.78;;;10.02;71.04
64189;BME280;50493;50.970;10.082;2023-03-14T12:22:00;96923.50;;;9.62;72.72
64189;BME280;50493;50.970;10.082;2023-03-14T12:24:29;96925.22;;;9.48;72.11
64189;BME280;50493;50.970;10.082;2023-03-14T12:26:58;96913.72;;;9.66;70.80
64189;BME280;50493;50.970;10.082;2023-03-14T12:29:24;96919.19;;;9.92;73.04
64189;BME280;50493;50.970;10.082;2023-03-14T12:32:06;96927.59;;;9.97;70.17
64189;BME280;50493;50.970;10.082;2023-03-14T12:34:32;96921.13;;;10.19;68.66
64189;BME280;50493;50.970;10.082;2023-03-14T12:37:23;96928.97;;;10.33;67.96
64189;BME280;50493;50.970;10.082;2023-03-14T12:40:01;96926.53;;;10.16;69.49
64189;BME280;50493;50.970;10.082;2023-03-14T12:42:44;96928.50;;;9.82;72.73
64189;BME280;50493;50.970;10.082;2023-03-14T12:45:22;96923.63;;;9.75;74.87
64189;BME280;50493;50.970;10.082;2023-03-14T12:47:54;96923.72;;;9.43;74.81
64189;BME280;50493;50.970;10.082;2023-03-14T12:50:24;96926.72;;;9.52;74.58
64189;BME280;50493;50.970;10.082;2023-03-14T12:53:06;96926.81;;;9.80;74.06
64189;BME280;50493;50.970;10.082;2023-03-14T12:55:39;96934.16;;;9.43;76.34
64189;BME280;50493;50.970;10.082;2023-03-14T12:58:13;96928.66;;;9.78;76.25
64189;BME280;50493;50.970;10.082;2023-03-14T13:00:41;96933.84;;;9.64;73.54